LTAJ Airport Information

Runway Information
Runway 10L Length 9843 ft width 157 ft
Elevation 2315 ft Threshold 427 ft Heading 105
Runway 28R Length 9843 ft Width 157 ft
Elevation 2190 ft Threshold 0 ft Heading 285
Runway 10R Length 9842 ft width 100 ft
Elevation 2309 ft Threshold 328 ft Heading 105
Runway 28L Length 9842 ft Width 100 ft
Elevation 2215 ft Threshold 0 ft Heading 285
Airport Frequencies
Type APP Name APP Frequency 120.1 MHZ
Type ATIS Name Frequency 119.275 MHZ
Type TWR Name TWR Frequency 120.1 MHZ
Airport Navaids
Type VOR-DME Name Gaziantep Frequency 116700 KHZ
Type NDB Name Oguzeli Frequency 432 KHZ
Airport Weather Information & NOTAM
ADDS - METARS form results

(0338 UTC 24 May 2019)
Data provider http://aviationweather.gov/metar/data/
 
METAR text: LTAJ 240320Z 00000KT 9999 FEW040 BKN100 14/M01 Q1012 NOSIG RMK RWY10 VRB02KT
Conditions at: LTAJ (GAZIANTEP , TR) observed 0320 UTC 24 May 2019
Temperature: 14.0°C (57°F)
Dewpoint: -1.0°C (30°F) [RH = 36%]
Pressure (altimeter): 29.88 inches Hg (1012.0 mb)
Winds: calm
Visibility: 6 or more miles (10+ km)
Ceiling: 10000 feet AGL
Clouds: few clouds at 4000 feet AGL
broken clouds at 10000 feet AGL
Weather: no significant weather observed at this time

METAR text: LTAJ 240250Z VRB01KT 9999 FEW040 BKN100 14/M01 Q1012 NOSIG RMK RWY10 25004KT 210V280
Conditions at: LTAJ (GAZIANTEP , TR) observed 0250 UTC 24 May 2019
Temperature: 14.0°C (57°F)
Dewpoint: -1.0°C (30°F) [RH = 36%]
Pressure (altimeter): 29.88 inches Hg (1012.0 mb)
Winds: variable direction winds at 1 MPH (1 knots; 0.5 m/s)
Visibility: 6 or more miles (10+ km)
Ceiling: 10000 feet AGL
Clouds: few clouds at 4000 feet AGL
broken clouds at 10000 feet AGL
Weather: no significant weather observed at this time

Forecast for: LTAJ (GAZIANTEP , TR)
Text: TAF LTAJ 232240Z 2400/2424 VRB02KT 9999 FEW040 BKN100
Forecast period: 0000 UTC 24 May 2019 to 0000 UTC 25 May 2019
Forecast type: FROM: standard forecast or significant change
Winds: variable direction winds at 2 MPH (2 knots; 1.0 m/s)
Visibility: 6 or more miles 10+ km)
Ceiling: 10000 feet AGL
Clouds: few clouds at 4000 feet AGL
broken clouds at 10000 feet AGL
Weather: no significant weather forecast for this period